KUIN/UIN METAR and TAF weather

Enter ICAO airport designator
Station Type Date Time Source
KUIN METAR 2021/08/05 04:54 UTC NOAA

KUIN 050454Z AUTO 16004KT 10SM CLR 21/16 A3012 RMK AO2 SLP193 T02060161 PWINO $


Station Type Date Time Source
KUIN Decoded METAR 2021/08/05 04:54 UTC NOAA

QUINCY MUNI. BALDWIN FIELD, IL, United States (KUIN) 39-56N 091-12W
Aug 05, 2021 - 12:54 AM EDT / 2021.08.05 0454 UTC
Wind: from the SSE (160 degrees) at 5 MPH (4 KT):0
Visibility: 10 mile(s):0
Sky conditions: clear
Temperature: 69.1 F (20.6 C)
Dew Point: 61.0 F (16.1 C)
Relative Humidity: 75%
Pressure (altimeter): 30.12 in. Hg (1019 hPa)
ob: KUIN 050454Z AUTO 16004KT 10SM CLR 21/16 A3012 RMK AO2 SLP193 T02060161 PWINO
cycle: 5

Station Type Date Time Source
KUIN TAF 2021/08/05 06:22 UTC NOAA

TAF KUIN 050520Z 0506/0606 VRB04KT P6SM SKC
FM051400 18008KT P6SM BKN120
FM051800 20009KT P6SM VCSH SCT040 BKN100
FM060000 18006KT P6SM BKN120

Example: see airport list